Time;durP1;ratioP1;P1;durP2;ratioP2;P2;SDS_P1;SDS_P2;PMS_P1;PMS_P2;Temp;Humidity;BMP_temperature;BMP_pressure;BME280_temperature;BME280_humidity;BME280_pressure;Samples;Min_cycle;Max_cycle;Signal;HPM_P1;HPM_P2
2022/10/29 00:00:58;;;;;;;23.50;5.93;;;;;;;;;;5081152;28;20078;-57
2022/10/29 00:03:24;;;;;;;24.52;6.13;;;;;;;;;;5090453;28;20027;-56
2022/10/29 00:05:56;;;;;;;18.38;6.10;;;;;;;;;;5081516;28;20180;-57
2022/10/29 00:08:21;;;;;;;18.17;6.63;;;;;;;;;;5086392;28;20043;-57
2022/10/29 00:10:47;;;;;;;28.15;6.68;;;;;;;;;;5088994;28;20031;-57
2022/10/29 00:13:12;;;;;;;23.08;6.55;;;;;;;;;;5084809;28;20043;-57
2022/10/29 00:15:39;;;;;;;20.83;6.50;;;;;;;;;;5085793;28;20024;-54
2022/10/29 00:18:04;;;;;;;16.50;6.78;;;;;;;;;;5098214;27;20043;-56
2022/10/29 00:20:29;;;;;;;19.08;6.78;;;;;;;;;;5086558;28;20024;-57
2022/10/29 00:22:55;;;;;;;26.58;6.30;;;;;;;;;;5082701;28;20119;-57
2022/10/29 00:25:20;;;;;;;24.88;6.88;;;;;;;;;;5084156;28;20124;-56
2022/10/29 00:27:45;;;;;;;24.48;6.53;;;;;;;;;;5088228;28;20118;-56
2022/10/29 00:30:11;;;;;;;20.17;6.45;;;;;;;;;;5093441;28;20490;-57
2022/10/29 00:32:36;;;;;;;17.95;6.05;;;;;;;;;;5090317;28;20020;-56
2022/10/29 00:35:01;;;;;;;20.20;5.90;;;;;;;;;;5102564;28;20109;-57
2022/10/29 00:37:27;;;;;;;17.08;6.25;;;;;;;;;;5083488;28;20116;-56
2022/10/29 00:39:52;;;;;;;21.40;7.35;;;;;;;;;;5084861;28;20028;-56
2022/10/29 00:42:17;;;;;;;17.35;6.13;;;;;;;;;;5086328;28;20024;-56
2022/10/29 00:44:42;;;;;;;23.98;6.82;;;;;;;;;;5073674;28;20309;-56
2022/10/29 00:47:43;;;;;;;16.42;5.93;;;;;;;;;;5080382;28;20187;-56
2022/10/29 00:50:09;;;;;;;18.23;6.03;;;;;;;;;;5029291;28;20071;-56
2022/10/29 00:52:35;;;;;;;26.45;6.43;;;;;;;;;;5067214;28;20483;-56
2022/10/29 00:55:01;;;;;;;27.23;7.90;;;;;;;;;;5090262;28;20026;-55
2022/10/29 00:57:28;;;;;;;18.98;6.30;;;;;;;;;;5080060;28;20116;-56
2022/10/29 00:59:53;;;;;;;23.88;7.95;;;;;;;;;;5082513;28;20024;-57
2022/10/29 01:02:19;;;;;;;19.50;6.05;;;;;;;;;;5089822;28;20027;-55
2022/10/29 01:04:44;;;;;;;19.77;7.25;;;;;;;;;;5087036;28;20028;-56
2022/10/29 01:07:09;;;;;;;18.70;6.28;;;;;;;;;;5080999;28;20043;-56
2022/10/29 01:09:34;;;;;;;29.20;7.38;;;;;;;;;;5073716;28;20127;-57
2022/10/29 01:12:03;;;;;;;26.05;6.53;;;;;;;;;;5093948;28;20458;-56
2022/10/29 01:14:32;;;;;;;19.95;6.68;;;;;;;;;;5089950;28;20298;-57
2022/10/29 01:16:57;;;;;;;22.90;6.45;;;;;;;;;;5090842;28;20020;-56
2022/10/29 01:19:28;;;;;;;20.08;6.47;;;;;;;;;;5088116;28;20077;-56
2022/10/29 01:21:56;;;;;;;23.92;6.90;;;;;;;;;;5087735;28;20055;-56
2022/10/29 01:24:38;;;;;;;21.40;7.05;;;;;;;;;;5082042;28;20063;-55
2022/10/29 01:27:22;;;;;;;17.92;6.63;;;;;;;;;;5089288;28;20039;-56
2022/10/29 01:29:59;;;;;;;17.90;6.40;;;;;;;;;;5083212;28;20409;-56
2022/10/29 01:32:27;;;;;;;19.33;6.93;;;;;;;;;;5097097;28;20056;-56
2022/10/29 01:34:55;;;;;;;24.70;6.95;;;;;;;;;;5091324;28;20632;-56
2022/10/29 01:37:37;;;;;;;17.75;6.65;;;;;;;;;;5090610;28;20036;-56
2022/10/29 01:40:04;;;;;;;27.15;6.80;;;;;;;;;;5088215;28;20028;-56
2022/10/29 01:42:36;;;;;;;20.02;7.55;;;;;;;;;;5091023;28;20035;-56
2022/10/29 01:45:05;;;;;;;20.90;7.07;;;;;;;;;;5088633;28;20024;-56
2022/10/29 01:47:30;;;;;;;26.63;7.13;;;;;;;;;;5082382;28;20066;-56
2022/10/29 01:49:58;;;;;;;23.95;6.53;;;;;;;;;;5099654;28;20023;-56
2022/10/29 01:52:23;;;;;;;18.73;6.55;;;;;;;;;;5092421;28;20027;-56
2022/10/29 01:54:48;;;;;;;22.38;7.15;;;;;;;;;;5088996;28;20012;-57
2022/10/29 01:57:33;;;;;;;28.70;8.02;;;;;;;;;;5089275;28;20050;-56
2022/10/29 02:00:14;;;;;;;24.63;8.02;;;;;;;;;;5092134;28;20066;-56
2022/10/29 02:02:48;;;;;;;20.38;7.10;;;;;;;;;;5100013;28;20054;-56
2022/10/29 02:05:26;;;;;;;22.02;7.10;;;;;;;;;;5089299;28;20046;-56
2022/10/29 02:08:04;;;;;;;23.05;7.15;;;;;;;;;;5093108;28;20130;-56
2022/10/29 02:10:29;;;;;;;16.77;6.97;;;;;;;;;;5082974;28;20024;-55
2022/10/29 02:12:54;;;;;;;21.42;6.88;;;;;;;;;;5089415;28;20378;-55
2022/10/29 02:15:24;;;;;;;20.52;7.68;;;;;;;;;;5087322;28;20101;-55
2022/10/29 02:17:49;;;;;;;19.95;7.25;;;;;;;;;;5091481;28;20023;-54
2022/10/29 02:20:15;;;;;;;22.35;7.22;;;;;;;;;;5087755;28;20031;-55
2022/10/29 02:22:40;;;;;;;22.50;6.85;;;;;;;;;;5090490;28;20015;-55
2022/10/29 02:25:06;;;;;;;24.13;7.38;;;;;;;;;;5090481;28;20020;-55
2022/10/29 02:27:32;;;;;;;22.63;7.50;;;;;;;;;;5089261;28;20349;-55
2022/10/29 02:29:57;;;;;;;20.50;7.38;;;;;;;;;;5080016;28;20151;-56
2022/10/29 02:32:22;;;;;;;25.35;8.15;;;;;;;;;;5092791;28;20043;-56
2022/10/29 02:34:47;;;;;;;23.77;7.85;;;;;;;;;;5098679;28;20107;-56
2022/10/29 02:37:13;;;;;;;17.88;7.40;;;;;;;;;;5097462;28;20052;-57
2022/10/29 02:39:38;;;;;;;24.00;7.53;;;;;;;;;;5097085;28;20024;-56
2022/10/29 02:42:03;;;;;;;21.58;8.20;;;;;;;;;;5092018;28;20027;-56
2022/10/29 02:44:28;;;;;;;18.30;7.70;;;;;;;;;;5076726;28;20545;-56
2022/10/29 02:46:54;;;;;;;21.33;7.78;;;;;;;;;;5086569;28;20115;-57
2022/10/29 02:49:19;;;;;;;20.73;7.63;;;;;;;;;;5094390;28;20079;-56
2022/10/29 02:51:44;;;;;;;25.70;8.02;;;;;;;;;;5104098;27;20015;-56
2022/10/29 02:54:09;;;;;;;21.27;8.38;;;;;;;;;;5087126;28;20116;-56
2022/10/29 02:56:35;;;;;;;22.80;7.75;;;;;;;;;;5086048;28;20028;-56
2022/10/29 02:59:00;;;;;;;23.85;7.63;;;;;;;;;;5093706;28;20446;-56
2022/10/29 03:01:25;;;;;;;21.27;8.38;;;;;;;;;;5091734;28;20077;-57
2022/10/29 03:03:50;;;;;;;16.45;7.75;;;;;;;;;;5085406;28;20038;-56
2022/10/29 03:06:16;;;;;;;23.45;7.65;;;;;;;;;;5090897;28;20127;-55
2022/10/29 03:08:41;;;;;;;17.63;7.80;;;;;;;;;;5091106;28;20093;-56
2022/10/29 03:11:07;;;;;;;18.40;7.97;;;;;;;;;;5086311;28;20521;-55
2022/10/29 03:13:32;;;;;;;22.35;7.60;;;;;;;;;;5082379;28;20060;-55
2022/10/29 03:15:57;;;;;;;26.40;8.65;;;;;;;;;;5085844;28;20435;-56
2022/10/29 03:18:22;;;;;;;22.80;7.90;;;;;;;;;;5090311;28;20115;-55
2022/10/29 03:20:48;;;;;;;30.50;8.75;;;;;;;;;;5085642;28;20043;-56
2022/10/29 03:23:13;;;;;;;19.77;8.40;;;;;;;;;;5087184;28;20510;-55
2022/10/29 03:25:38;;;;;;;20.38;8.00;;;;;;;;;;5085700;28;20517;-57
2022/10/29 03:28:03;;;;;;;20.00;8.10;;;;;;;;;;5090061;28;20016;-56
2022/10/29 03:30:29;;;;;;;31.15;8.55;;;;;;;;;;5087940;28;20028;-57
2022/10/29 03:32:54;;;;;;;22.70;8.15;;;;;;;;;;5088628;28;20051;-57
2022/10/29 03:35:19;;;;;;;23.23;8.38;;;;;;;;;;5086883;28;20032;-56
2022/10/29 03:37:47;;;;;;;27.02;8.43;;;;;;;;;;5082288;28;20020;-57
2022/10/29 03:40:12;;;;;;;24.00;8.13;;;;;;;;;;5091742;28;20106;-57
2022/10/29 03:42:38;;;;;;;17.60;7.30;;;;;;;;;;5089451;28;20111;-56
2022/10/29 03:45:03;;;;;;;18.85;8.65;;;;;;;;;;5091404;28;20539;-57
2022/10/29 03:47:28;;;;;;;21.70;8.35;;;;;;;;;;5091497;28;20390;-56
2022/10/29 03:49:53;;;;;;;25.73;8.65;;;;;;;;;;5083903;28;20375;-55
2022/10/29 03:52:19;;;;;;;24.45;8.55;;;;;;;;;;5090504;28;20032;-55
2022/10/29 03:54:44;;;;;;;23.48;8.23;;;;;;;;;;5091295;28;20086;-56
2022/10/29 03:57:09;;;;;;;21.90;7.85;;;;;;;;;;5084022;28;20070;-55
2022/10/29 03:59:34;;;;;;;33.30;8.70;;;;;;;;;;5090628;28;20518;-56
2022/10/29 04:02:00;;;;;;;23.08;8.00;;;;;;;;;;5094518;28;20016;-57
2022/10/29 04:04:25;;;;;;;19.77;8.95;;;;;;;;;;5090644;28;20108;-56
2022/10/29 04:06:50;;;;;;;23.00;8.65;;;;;;;;;;5089855;28;20048;-55
2022/10/29 04:09:15;;;;;;;20.17;7.63;;;;;;;;;;5087645;28;20043;-57
2022/10/29 04:11:41;;;;;;;22.75;7.28;;;;;;;;;;5090115;28;20024;-57
2022/10/29 04:14:06;;;;;;;29.75;8.27;;;;;;;;;;5085960;28;20051;-55
2022/10/29 04:16:31;;;;;;;21.23;8.27;;;;;;;;;;5089315;28;20019;-56
2022/10/29 04:18:56;;;;;;;17.70;7.35;;;;;;;;;;5090461;28;20393;-56
2022/10/29 04:21:22;;;;;;;26.45;8.23;;;;;;;;;;5089590;28;20046;-55
2022/10/29 04:23:50;;;;;;;19.05;8.82;;;;;;;;;;5095047;28;20027;-56
2022/10/29 04:26:15;;;;;;;21.17;8.45;;;;;;;;;;5083253;28;20054;-56
2022/10/29 04:28:40;;;;;;;28.52;8.13;;;;;;;;;;5100801;28;20689;-57
2022/10/29 04:31:06;;;;;;;24.42;7.90;;;;;;;;;;5086358;28;20133;-56
2022/10/29 04:33:31;;;;;;;24.35;7.88;;;;;;;;;;5096998;28;20024;-56
2022/10/29 04:35:56;;;;;;;22.98;7.90;;;;;;;;;;5093906;28;20019;-57
2022/10/29 04:38:22;;;;;;;19.45;7.80;;;;;;;;;;5087905;28;20154;-57
2022/10/29 04:40:47;;;;;;;20.45;7.78;;;;;;;;;;5078095;28;20095;-57
2022/10/29 04:43:12;;;;;;;25.92;8.18;;;;;;;;;;5084026;28;20111;-57
2022/10/29 04:45:37;;;;;;;17.52;8.85;;;;;;;;;;5091576;28;20402;-56
2022/10/29 04:48:03;;;;;;;26.05;8.27;;;;;;;;;;5099168;28;20440;-56
2022/10/29 04:50:29;;;;;;;28.55;9.15;;;;;;;;;;5080940;28;20020;-56
2022/10/29 04:53:00;;;;;;;26.17;8.23;;;;;;;;;;5084947;28;20024;-56
2022/10/29 04:55:26;;;;;;;24.75;8.30;;;;;;;;;;5090871;28;20139;-57
2022/10/29 04:57:51;;;;;;;27.98;7.93;;;;;;;;;;5096065;28;20123;-55
2022/10/29 05:00:16;;;;;;;18.27;7.93;;;;;;;;;;5085511;28;20031;-56
2022/10/29 05:02:42;;;;;;;28.30;7.75;;;;;;;;;;5091340;28;20106;-55
2022/10/29 05:05:07;;;;;;;17.65;8.18;;;;;;;;;;5082662;28;20024;-55
2022/10/29 05:07:32;;;;;;;22.25;8.82;;;;;;;;;;5092985;28;20051;-55
2022/10/29 05:09:57;;;;;;;18.35;7.47;;;;;;;;;;5083366;28;20035;-55
2022/10/29 05:12:23;;;;;;;21.65;8.90;;;;;;;;;;5091298;28;20600;-55
2022/10/29 05:14:48;;;;;;;30.10;9.00;;;;;;;;;;5088732;28;20020;-55
2022/10/29 05:17:13;;;;;;;25.75;9.10;;;;;;;;;;5094970;28;20031;-55
2022/10/29 05:19:38;;;;;;;19.77;8.55;;;;;;;;;;5092589;28;21229;-55
2022/10/29 05:22:04;;;;;;;27.98;7.90;;;;;;;;;;5091193;28;20119;-56
2022/10/29 05:24:29;;;;;;;29.35;8.65;;;;;;;;;;5090737;28;20031;-56
2022/10/29 05:26:54;;;;;;;15.82;8.23;;;;;;;;;;5090336;28;20414;-55
2022/10/29 05:29:19;;;;;;;23.55;8.38;;;;;;;;;;5091296;28;20028;-55
2022/10/29 05:31:45;;;;;;;18.45;8.18;;;;;;;;;;5088569;28;20020;-56
2022/10/29 05:34:10;;;;;;;25.85;8.45;;;;;;;;;;5090504;28;20418;-55
2022/10/29 05:36:35;;;;;;;19.33;7.72;;;;;;;;;;5099458;28;20052;-56
2022/10/29 05:39:00;;;;;;;24.55;7.85;;;;;;;;;;5082588;28;20024;-55
2022/10/29 05:41:26;;;;;;;21.00;8.57;;;;;;;;;;5091883;28;20066;-55
2022/10/29 05:43:51;;;;;;;21.00;8.35;;;;;;;;;;5091157;28;20073;-54
2022/10/29 05:46:16;;;;;;;26.83;8.88;;;;;;;;;;5091071;28;20023;-55
2022/10/29 05:48:41;;;;;;;22.85;8.52;;;;;;;;;;5089226;28;20126;-55
2022/10/29 05:51:07;;;;;;;23.30;7.65;;;;;;;;;;5080961;28;20075;-56
2022/10/29 05:53:32;;;;;;;32.05;8.60;;;;;;;;;;5084816;28;20039;-55
2022/10/29 05:55:57;;;;;;;20.25;8.30;;;;;;;;;;5083924;28;20020;-55
2022/10/29 05:58:22;;;;;;;22.70;8.18;;;;;;;;;;5080973;28;20026;-56
2022/10/29 06:00:48;;;;;;;15.57;7.38;;;;;;;;;;5092654;28;20008;-56
2022/10/29 06:03:19;;;;;;;19.67;7.88;;;;;;;;;;5091650;28;20034;-56
2022/10/29 06:05:45;;;;;;;19.25;7.80;;;;;;;;;;5084858;28;20438;-56
2022/10/29 06:08:10;;;;;;;22.95;7.60;;;;;;;;;;5090497;28;20100;-56
2022/10/29 06:10:35;;;;;;;26.42;9.00;;;;;;;;;;5087993;28;20596;-56
2022/10/29 06:13:01;;;;;;;26.65;9.35;;;;;;;;;;5086528;28;20020;-55
2022/10/29 06:15:26;;;;;;;15.50;7.53;;;;;;;;;;5084335;28;20016;-55
2022/10/29 06:17:51;;;;;;;16.70;8.40;;;;;;;;;;5087470;28;20398;-56
2022/10/29 06:20:17;;;;;;;23.40;8.40;;;;;;;;;;5078882;28;20025;-55
2022/10/29 06:22:43;;;;;;;21.23;8.52;;;;;;;;;;5083691;28;20104;-56
2022/10/29 06:25:08;;;;;;;34.20;9.70;;;;;;;;;;5074212;28;20028;-55
2022/10/29 06:27:34;;;;;;;23.15;8.98;;;;;;;;;;5090535;28;20323;-55
2022/10/29 06:29:59;;;;;;;23.65;9.05;;;;;;;;;;5081820;28;20028;-56
2022/10/29 06:32:24;;;;;;;20.08;8.82;;;;;;;;;;5090304;28;20547;-54
2022/10/29 06:34:49;;;;;;;24.42;8.27;;;;;;;;;;5091844;28;20651;-55
2022/10/29 06:37:15;;;;;;;28.00;10.00;;;;;;;;;;5091387;28;20558;-56
2022/10/29 06:39:40;;;;;;;20.05;7.88;;;;;;;;;;5092479;28;20028;-55
2022/10/29 06:42:05;;;;;;;26.15;8.68;;;;;;;;;;5088140;28;20023;-56
2022/10/29 06:44:30;;;;;;;29.33;9.02;;;;;;;;;;5088928;28;20081;-56
2022/10/29 06:46:56;;;;;;;35.22;9.40;;;;;;;;;;5086407;28;20020;-56
2022/10/29 06:49:21;;;;;;;18.92;8.55;;;;;;;;;;5084887;28;20036;-55
2022/10/29 06:51:46;;;;;;;29.05;9.23;;;;;;;;;;5090010;28;20061;-56
2022/10/29 06:54:11;;;;;;;22.13;8.80;;;;;;;;;;5077131;28;20032;-55
2022/10/29 06:56:37;;;;;;;26.35;8.43;;;;;;;;;;5094721;28;20019;-56
2022/10/29 06:59:02;;;;;;;26.85;8.38;;;;;;;;;;5085961;28;20391;-56
2022/10/29 07:01:29;;;;;;;21.00;8.15;;;;;;;;;;5083819;28;20450;-56
2022/10/29 07:03:54;;;;;;;23.23;8.52;;;;;;;;;;5082785;28;20016;-55
2022/10/29 07:06:19;;;;;;;27.90;8.98;;;;;;;;;;5089006;28;20131;-55
2022/10/29 07:08:44;;;;;;;21.95;8.30;;;;;;;;;;5086763;28;20541;-55
2022/10/29 07:11:10;;;;;;;17.85;8.38;;;;;;;;;;5089897;28;20012;-56
2022/10/29 07:13:35;;;;;;;18.77;8.20;;;;;;;;;;5096847;28;20036;-55
2022/10/29 07:16:00;;;;;;;22.33;8.57;;;;;;;;;;5086440;28;20019;-55
2022/10/29 07:18:25;;;;;;;22.20;8.60;;;;;;;;;;5084915;28;20039;-55
2022/10/29 07:20:51;;;;;;;25.80;8.60;;;;;;;;;;5077228;28;20125;-55
2022/10/29 07:23:16;;;;;;;22.27;8.45;;;;;;;;;;5067563;28;20112;-56
2022/10/29 07:25:41;;;;;;;21.77;8.77;;;;;;;;;;5075169;28;20044;-56
2022/10/29 07:28:09;;;;;;;22.83;8.88;;;;;;;;;;5069369;28;20376;-56
2022/10/29 07:30:34;;;;;;;24.17;8.93;;;;;;;;;;5087282;28;20012;-57
2022/10/29 07:32:59;;;;;;;19.80;8.43;;;;;;;;;;5083986;28;20041;-56
2022/10/29 07:35:25;;;;;;;17.40;8.60;;;;;;;;;;5085142;28;20334;-55
2022/10/29 07:37:50;;;;;;;19.70;9.45;;;;;;;;;;5100292;27;20032;-56
2022/10/29 07:40:15;;;;;;;28.98;9.00;;;;;;;;;;5090201;28;20032;-56
2022/10/29 07:42:40;;;;;;;23.58;8.38;;;;;;;;;;5079628;28;20368;-56
2022/10/29 07:45:06;;;;;;;22.40;8.68;;;;;;;;;;5091238;28;20030;-56
2022/10/29 07:47:31;;;;;;;25.60;8.65;;;;;;;;;;5087385;28;20039;-55
2022/10/29 07:49:56;;;;;;;23.58;9.77;;;;;;;;;;5088283;28;20008;-55
2022/10/29 07:52:22;;;;;;;27.00;9.10;;;;;;;;;;5088980;28;20046;-54
2022/10/29 07:54:47;;;;;;;25.50;8.75;;;;;;;;;;5086751;28;20044;-56
2022/10/29 07:57:13;;;;;;;22.35;8.88;;;;;;;;;;5087967;28;20028;-55
2022/10/29 07:59:38;;;;;;;19.17;8.30;;;;;;;;;;5089446;28;20024;-56
2022/10/29 08:02:03;;;;;;;27.10;9.13;;;;;;;;;;5088595;28;20019;-56
2022/10/29 08:04:28;;;;;;;19.33;9.25;;;;;;;;;;5086777;28;20043;-58
2022/10/29 08:06:53;;;;;;;27.05;9.48;;;;;;;;;;5078176;28;20469;-56
2022/10/29 08:09:19;;;;;;;27.33;9.82;;;;;;;;;;5084214;28;20563;-56
2022/10/29 08:11:45;;;;;;;29.27;9.98;;;;;;;;;;5082973;28;20044;-56
2022/10/29 08:14:11;;;;;;;24.10;9.52;;;;;;;;;;5081330;28;20028;-56
2022/10/29 08:16:36;;;;;;;32.92;9.25;;;;;;;;;;5077189;28;20466;-56
2022/10/29 08:19:02;;;;;;;22.65;8.07;;;;;;;;;;5076186;28;20031;-56
2022/10/29 08:21:27;;;;;;;29.63;8.45;;;;;;;;;;5091569;28;20032;-56
2022/10/29 08:23:52;;;;;;;19.67;8.05;;;;;;;;;;5093200;28;20031;-55
2022/10/29 08:26:18;;;;;;;23.60;8.70;;;;;;;;;;5080147;28;20271;-56
2022/10/29 08:28:43;;;;;;;23.92;8.85;;;;;;;;;;5092291;28;20348;-56
2022/10/29 08:31:08;;;;;;;24.95;9.90;;;;;;;;;;5089260;28;20115;-56
2022/10/29 08:33:34;;;;;;;25.15;8.57;;;;;;;;;;5089584;28;20016;-56
2022/10/29 08:36:00;;;;;;;32.70;9.38;;;;;;;;;;5089783;28;20031;-55
2022/10/29 08:38:25;;;;;;;22.42;8.27;;;;;;;;;;5088900;28;20453;-56
2022/10/29 08:40:59;;;;;;;15.05;8.45;;;;;;;;;;5104679;28;20450;-56
2022/10/29 08:43:31;;;;;;;24.13;9.80;;;;;;;;;;5087800;28;20417;-55
2022/10/29 08:45:56;;;;;;;30.02;8.38;;;;;;;;;;5088183;28;20032;-56
2022/10/29 08:48:27;;;;;;;22.90;9.70;;;;;;;;;;5096470;28;20417;-55
2022/10/29 08:50:55;;;;;;;26.08;9.10;;;;;;;;;;5091601;28;20018;-55
2022/10/29 08:53:22;;;;;;;21.92;8.50;;;;;;;;;;5089381;28;20066;-56
2022/10/29 08:55:48;;;;;;;31.30;9.43;;;;;;;;;;5091241;28;20605;-56
2022/10/29 08:58:26;;;;;;;22.83;9.40;;;;;;;;;;5086573;28;20131;-56
2022/10/29 09:00:53;;;;;;;33.38;10.82;;;;;;;;;;5089610;28;20038;-56
2022/10/29 09:03:18;;;;;;;35.50;10.45;;;;;;;;;;5090310;28;20067;-57
2022/10/29 09:05:53;;;;;;;25.45;9.77;;;;;;;;;;5079046;28;20059;-56
2022/10/29 09:08:24;;;;;;;29.10;9.15;;;;;;;;;;5098247;28;20062;-55
2022/10/29 09:10:53;;;;;;;33.67;10.23;;;;;;;;;;5087246;28;20065;-57
2022/10/29 09:13:38;;;;;;;24.52;9.25;;;;;;;;;;5110162;27;20028;-57
2022/10/29 09:16:15;;;;;;;27.67;10.25;;;;;;;;;;5082709;28;20012;-58
2022/10/29 09:18:49;;;;;;;33.33;12.02;;;;;;;;;;5078265;28;20416;-56
2022/10/29 09:21:21;;;;;;;20.77;9.40;;;;;;;;;;5086111;28;20149;-58
2022/10/29 09:23:55;;;;;;;29.08;10.13;;;;;;;;;;5091525;28;20023;-58
2022/10/29 09:26:20;;;;;;;18.42;8.95;;;;;;;;;;5092026;28;20396;-58
2022/10/29 09:29:04;;;;;;;31.42;9.80;;;;;;;;;;5092255;28;20023;-57
2022/10/29 09:31:49;;;;;;;34.17;10.15;;;;;;;;;;5086910;28;20051;-57
2022/10/29 09:34:34;;;;;;;37.17;10.43;;;;;;;;;;5094858;28;20020;-57
2022/10/29 09:37:00;;;;;;;29.35;9.63;;;;;;;;;;5071373;28;20111;-59
2022/10/29 09:39:36;;;;;;;27.50;9.68;;;;;;;;;;5089228;28;20111;-58
2022/10/29 09:42:04;;;;;;;23.77;9.00;;;;;;;;;;5092040;28;20016;-54
2022/10/29 09:44:38;;;;;;;32.45;9.13;;;;;;;;;;5086071;28;20462;-56
2022/10/29 09:47:22;;;;;;;20.00;8.02;;;;;;;;;;5085535;28;20642;-56
2022/10/29 09:49:48;;;;;;;21.73;9.02;;;;;;;;;;5085654;28;20024;-57
2022/10/29 09:52:18;;;;;;;26.42;9.55;;;;;;;;;;5096940;28;20073;-56
2022/10/29 09:54:43;;;;;;;24.02;11.23;;;;;;;;;;5085440;28;20045;-56
2022/10/29 09:57:10;;;;;;;26.90;11.52;;;;;;;;;;5086062;28;20028;-56
2022/10/29 09:59:37;;;;;;;28.90;12.63;;;;;;;;;;5089727;28;20039;-56
2022/10/29 10:02:03;;;;;;;27.90;12.90;;;;;;;;;;5088759;28;20066;-57
2022/10/29 10:04:28;;;;;;;32.88;14.52;;;;;;;;;;5084897;28;20610;-56
2022/10/29 10:07:00;;;;;;;29.35;12.35;;;;;;;;;;5092727;28;20440;-56
2022/10/29 10:09:25;;;;;;;30.60;11.60;;;;;;;;;;5083656;28;20032;-56
2022/10/29 10:11:53;;;;;;;37.92;14.38;;;;;;;;;;5081662;28;20476;-54
2022/10/29 10:14:18;;;;;;;21.52;11.75;;;;;;;;;;5089342;28;20151;-56
2022/10/29 10:16:43;;;;;;;32.38;14.40;;;;;;;;;;5089250;28;20328;-56
2022/10/29 10:19:28;;;;;;;40.67;15.93;;;;;;;;;;5075069;28;20107;-56
2022/10/29 10:21:58;;;;;;;29.90;15.65;;;;;;;;;;5084188;28;20039;-56
2022/10/29 10:24:30;;;;;;;35.72;16.13;;;;;;;;;;5082378;28;20077;-56
2022/10/29 10:26:56;;;;;;;41.15;15.38;;;;;;;;;;5090231;28;20026;-56
2022/10/29 10:29:21;;;;;;;28.58;13.57;;;;;;;;;;5088462;28;20330;-54
2022/10/29 10:31:47;;;;;;;36.47;13.50;;;;;;;;;;5089304;28;20481;-56
2022/10/29 10:34:44;;;;;;;32.17;13.25;;;;;;;;;;5087736;28;20032;-55
2022/10/29 10:37:10;;;;;;;30.40;12.50;;;;;;;;;;5043418;28;20126;-55
2022/10/29 10:39:35;;;;;;;30.67;13.30;;;;;;;;;;5083069;28;20162;-56
2022/10/29 10:42:02;;;;;;;33.10;12.65;;;;;;;;;;5070593;28;20031;-56
2022/10/29 10:44:27;;;;;;;34.17;13.73;;;;;;;;;;5088030;28;20020;-56
2022/10/29 10:46:53;;;;;;;20.42;10.38;;;;;;;;;;5088297;28;20069;-56
2022/10/29 10:49:33;;;;;;;21.20;9.38;;;;;;;;;;5092163;28;20020;-58
2022/10/29 10:51:58;;;;;;;22.65;8.98;;;;;;;;;;5088060;28;20041;-55
2022/10/29 10:54:23;;;;;;;18.70;8.82;;;;;;;;;;5083205;28;20100;-55
2022/10/29 10:57:02;;;;;;;21.88;8.95;;;;;;;;;;5095093;28;20423;-55
2022/10/29 10:59:29;;;;;;;14.85;6.55;;;;;;;;;;5082001;28;20035;-55
2022/10/29 11:01:54;;;;;;;32.35;8.40;;;;;;;;;;5088704;28;20068;-55
2022/10/29 11:04:20;;;;;;;23.80;7.97;;;;;;;;;;5084172;28;20036;-56
2022/10/29 11:06:48;;;;;;;18.98;8.40;;;;;;;;;;5085861;28;20402;-56
2022/10/29 11:09:24;;;;;;;25.27;8.27;;;;;;;;;;5085460;28;20036;-55
2022/10/29 11:11:51;;;;;;;19.55;7.85;;;;;;;;;;5087048;28;20369;-55
2022/10/29 11:14:20;;;;;;;20.80;8.20;;;;;;;;;;5083932;28;20112;-55
2022/10/29 11:16:47;;;;;;;25.23;7.97;;;;;;;;;;5074727;28;20050;-55
2022/10/29 11:19:19;;;;;;;17.58;7.45;;;;;;;;;;5087796;28;20020;-55
2022/10/29 11:21:45;;;;;;;24.23;7.93;;;;;;;;;;5090268;28;20023;-56
2022/10/29 11:24:16;;;;;;;19.95;7.97;;;;;;;;;;5088031;28;20040;-55
2022/10/29 11:26:48;;;;;;;21.60;8.02;;;;;;;;;;5088456;28;20035;-58
2022/10/29 11:29:25;;;;;;;21.80;7.78;;;;;;;;;;5089196;28;20040;-55
2022/10/29 11:31:59;;;;;;;23.40;7.68;;;;;;;;;;5084808;28;20048;-56
2022/10/29 11:34:40;;;;;;;18.40;7.38;;;;;;;;;;5085446;28;20023;-56
2022/10/29 11:37:07;;;;;;;17.60;7.43;;;;;;;;;;5086131;28;20158;-55
2022/10/29 11:39:47;;;;;;;19.80;7.20;;;;;;;;;;5082064;28;20058;-56
2022/10/29 11:42:12;;;;;;;16.67;7.20;;;;;;;;;;5087833;28;20110;-56
2022/10/29 11:44:38;;;;;;;23.98;7.38;;;;;;;;;;5081005;28;20355;-55
2022/10/29 11:47:22;;;;;;;19.58;7.47;;;;;;;;;;5077142;28;20073;-55
2022/10/29 11:49:56;;;;;;;21.60;7.63;;;;;;;;;;5084458;28;20024;-56
2022/10/29 11:52:27;;;;;;;25.90;8.05;;;;;;;;;;5083554;28;20027;-55
2022/10/29 11:55:11;;;;;;;18.85;7.45;;;;;;;;;;5085411;28;20071;-55
2022/10/29 11:57:38;;;;;;;24.17;7.15;;;;;;;;;;5090646;28;20131;-54
2022/10/29 12:00:07;;;;;;;22.67;7.47;;;;;;;;;;5084358;28;20024;-55
2022/10/29 12:02:32;;;;;;;19.02;7.22;;;;;;;;;;5094644;28;20032;-55
2022/10/29 12:05:09;;;;;;;18.75;7.80;;;;;;;;;;5088292;28;20016;-57
2022/10/29 12:07:53;;;;;;;21.27;8.68;;;;;;;;;;5085180;28;20336;-55
2022/10/29 12:10:37;;;;;;;17.55;7.85;;;;;;;;;;5085072;28;20019;-56
2022/10/29 12:13:25;;;;;;;19.50;8.13;;;;;;;;;;5085781;28;20337;-56
2022/10/29 12:16:09;;;;;;;21.60;7.15;;;;;;;;;;5054646;28;20417;-54
2022/10/29 12:19:06;;;;;;;21.85;6.75;;;;;;;;;;5087891;28;20024;-55
2022/10/29 12:21:34;;;;;;;21.60;7.03;;;;;;;;;;5058430;28;20028;-55
2022/10/29 12:24:18;;;;;;;22.65;6.88;;;;;;;;;;5087768;28;20151;-55
2022/10/29 12:26:44;;;;;;;18.52;7.05;;;;;;;;;;5078870;28;20111;-55
2022/10/29 12:29:19;;;;;;;22.63;7.35;;;;;;;;;;5080712;28;20068;-54
2022/10/29 12:31:44;;;;;;;21.40;6.97;;;;;;;;;;5081288;28;20054;-55
2022/10/29 12:34:20;;;;;;;20.67;7.28;;;;;;;;;;5097367;28;20059;-55
2022/10/29 12:36:48;;;;;;;17.27;7.28;;;;;;;;;;5084676;28;20027;-56
2022/10/29 12:39:14;;;;;;;17.83;7.05;;;;;;;;;;5086834;28;20020;-55
2022/10/29 12:41:40;;;;;;;17.45;7.35;;;;;;;;;;5089170;28;20028;-55
2022/10/29 12:44:07;;;;;;;18.92;7.20;;;;;;;;;;5078918;28;20025;-54
2022/10/29 12:46:39;;;;;;;22.15;7.68;;;;;;;;;;5086162;28;20038;-55
2022/10/29 12:49:07;;;;;;;25.27;7.57;;;;;;;;;;5088436;28;20035;-54
2022/10/29 12:51:34;;;;;;;25.88;8.75;;;;;;;;;;5086299;28;20021;-54
2022/10/29 12:54:19;;;;;;;27.95;8.93;;;;;;;;;;5085901;28;20047;-56
2022/10/29 12:56:44;;;;;;;22.85;8.43;;;;;;;;;;5078284;28;20024;-56
2022/10/29 12:59:28;;;;;;;20.67;7.70;;;;;;;;;;5092686;28;20570;-55
2022/10/29 13:01:53;;;;;;;19.17;6.88;;;;;;;;;;5081001;28;20020;-55
2022/10/29 13:04:22;;;;;;;24.95;7.78;;;;;;;;;;5090026;28;20036;-54
2022/10/29 13:06:55;;;;;;;21.95;8.30;;;;;;;;;;5086410;28;20071;-55
2022/10/29 13:09:21;;;;;;;23.65;7.90;;;;;;;;;;5084227;28;20032;-55
2022/10/29 13:11:50;;;;;;;24.92;8.13;;;;;;;;;;5091403;28;20028;-56
2022/10/29 13:14:18;;;;;;;21.33;7.45;;;;;;;;;;5090982;28;20490;-56
2022/10/29 13:16:44;;;;;;;21.05;7.50;;;;;;;;;;5081801;28;20238;-55
2022/10/29 13:19:17;;;;;;;23.70;7.95;;;;;;;;;;5080453;28;20422;-56
2022/10/29 13:21:56;;;;;;;25.73;8.32;;;;;;;;;;5088399;28;20017;-55
2022/10/29 13:24:21;;;;;;;18.88;7.70;;;;;;;;;;5091706;28;20527;-55
2022/10/29 13:26:52;;;;;;;25.35;8.55;;;;;;;;;;5092560;28;20059;-55
2022/10/29 13:29:36;;;;;;;25.40;9.40;;;;;;;;;;5087901;28;20055;-56
2022/10/29 13:32:04;;;;;;;21.92;8.40;;;;;;;;;;5087188;28;20020;-56
2022/10/29 13:34:48;;;;;;;28.27;8.30;;;;;;;;;;5087842;28;20088;-56
2022/10/29 13:37:49;;;;;;;31.23;8.88;;;;;;;;;;5093470;28;20419;-56
2022/10/29 13:40:29;;;;;;;26.13;8.90;;;;;;;;;;5031699;28;20806;-55
2022/10/29 13:43:01;;;;;;;22.83;9.55;;;;;;;;;;5082572;28;20051;-55
2022/10/29 13:45:26;;;;;;;24.80;9.18;;;;;;;;;;5093994;28;20450;-55
2022/10/29 13:47:53;;;;;;;23.65;8.35;;;;;;;;;;5094858;28;20448;-56
2022/10/29 13:50:18;;;;;;;23.70;8.38;;;;;;;;;;5078632;28;20195;-55
2022/10/29 13:52:44;;;;;;;24.30;9.35;;;;;;;;;;5097356;28;20427;-55
2022/10/29 13:55:09;;;;;;;24.10;9.05;;;;;;;;;;5081761;28;20077;-57
2022/10/29 13:57:34;;;;;;;27.52;8.93;;;;;;;;;;5085281;28;20425;-56
2022/10/29 14:00:00;;;;;;;26.85;9.57;;;;;;;;;;5081070;28;20055;-57
2022/10/29 14:02:25;;;;;;;24.08;8.77;;;;;;;;;;5086335;28;20044;-57
2022/10/29 14:04:52;;;;;;;24.77;9.18;;;;;;;;;;5073428;28;20082;-57
2022/10/29 14:07:19;;;;;;;25.52;9.50;;;;;;;;;;5088967;28;20489;-57
2022/10/29 14:09:45;;;;;;;23.27;9.07;;;;;;;;;;5090238;28;20056;-56
2022/10/29 14:12:11;;;;;;;25.55;9.90;;;;;;;;;;5094468;28;20610;-55
2022/10/29 14:14:41;;;;;;;21.85;8.77;;;;;;;;;;5087078;28;20576;-57
2022/10/29 14:17:06;;;;;;;;;;;;;;;;;;5099563;28;20101;-54
2022/10/29 14:19:31;;;;;;;22.40;8.93;;;;;;;;;;5090012;28;20340;-54
2022/10/29 14:21:57;;;;;;;20.95;8.38;;;;;;;;;;5098548;28;20615;-56
2022/10/29 14:24:22;;;;;;;25.33;9.57;;;;;;;;;;5089050;28;20104;-55
2022/10/29 14:26:47;;;;;;;26.90;9.20;;;;;;;;;;5086821;28;20099;-56
2022/10/29 14:29:17;;;;;;;22.90;10.00;;;;;;;;;;5087154;28;20416;-54
2022/10/29 14:31:42;;;;;;;22.23;9.88;;;;;;;;;;5089003;28;20012;-55
2022/10/29 14:34:12;;;;;;;26.77;10.25;;;;;;;;;;5086220;28;20419;-55